Time;durP1;ratioP1;P1;durP2;ratioP2;P2;SDS_P1;SDS_P2;PMS_P1;PMS_P2;Temp;Humidity;BMP_temperature;BMP_pressure;BME280_temperature;BME280_humidity;BME280_pressure;Samples;Min_cycle;Max_cycle;Signal;HPM_P1;HPM_P2
2023/10/18 00:00:28;;;;;;;;;;;;;;;2.27;84.01;100802.25;109099;278;39782;-70
2023/10/18 00:03:21;;;;;;;;;;;;;;;2.24;84.16;100799.66;108930;278;39760;-71
2023/10/18 00:06:11;;;;;;;;;;;;;;;2.24;84.02;100796.05;109074;277;38179;-70
2023/10/18 00:08:57;;;;;;;;;;;;;;;2.22;84.07;100793.64;108954;278;39555;-70
2023/10/18 00:11:35;;;;;;;;;;;;;;;2.23;84.24;100790.89;108958;277;39255;-70
2023/10/18 00:14:10;;;;;;;;;;;;;;;2.23;84.08;100790.20;108909;277;175548;-71
2023/10/18 00:16:43;;;;;;;;;;;;;;;2.20;83.92;100787.94;109022;277;38195;-71
2023/10/18 00:19:20;;;;;;;;;;;;;;;2.19;83.95;100785.88;109001;278;40388;-71
2023/10/18 00:22:01;;;;;;;;;;;;;;;2.16;84.04;100781.38;108934;277;38256;-70
2023/10/18 00:24:37;;;;;;;;;;;;;;;2.12;83.97;100786.88;108957;278;38226;-67
2023/10/18 00:27:12;;;;;;;;;;;;;;;2.06;84.09;100785.48;108925;278;39260;-67
2023/10/18 00:29:50;;;;;;;;;;;;;;;2.03;84.12;100785.83;108971;278;38458;-66
2023/10/18 00:32:26;;;;;;;;;;;;;;;1.99;84.18;100783.74;108900;278;38599;-66
2023/10/18 00:34:59;;;;;;;;;;;;;;;1.98;84.30;100782.88;108938;278;39703;-71
2023/10/18 00:37:31;;;;;;;;;;;;;;;1.95;84.26;100784.07;108905;278;39397;-70
2023/10/18 00:40:08;;;;;;;;;;;;;;;1.94;84.20;100783.20;108970;278;39379;-70
2023/10/18 00:42:41;;;;;;;;;;;;;;;1.94;84.33;100782.17;108951;278;39260;-71
2023/10/18 00:45:14;;;;;;;;;;;;;;;1.92;84.39;100778.55;108945;278;41566;-68
2023/10/18 00:47:50;;;;;;;;;;;;;;;1.88;84.43;100773.20;108942;278;39942;-66
2023/10/18 00:50:29;;;;;;;;;;;;;;;1.82;84.29;100771.98;108940;277;39233;-66
2023/10/18 00:53:06;;;;;;;;;;;;;;;1.78;84.30;100768.18;108923;278;39670;-69
2023/10/18 00:55:42;;;;;;;;;;;;;;;1.72;84.30;100767.47;108957;278;39897;-71
2023/10/18 00:58:18;;;;;;;;;;;;;;;1.66;84.23;100764.33;108921;278;40452;-71
2023/10/18 01:00:56;;;;;;;;;;;;;;;1.63;84.45;100763.99;108981;278;38146;-67
2023/10/18 01:03:32;;;;;;;;;;;;;;;1.63;84.71;100768.63;109063;278;38300;-67
2023/10/18 01:06:12;;;;;;;;;;;;;;;1.62;84.79;100763.13;108866;278;175932;-70
2023/10/18 01:08:46;;;;;;;;;;;;;;;1.63;84.92;100762.62;109008;278;38489;-70
2023/10/18 01:11:26;;;;;;;;;;;;;;;1.65;84.95;100761.75;108964;278;38770;-67
2023/10/18 01:14:13;;;;;;;;;;;;;;;1.66;85.10;100757.63;108922;278;40697;-69
2023/10/18 01:16:45;;;;;;;;;;;;;;;1.68;85.27;100752.65;108928;278;39474;-67
2023/10/18 01:19:22;;;;;;;;;;;;;;;1.68;85.34;100752.48;108952;278;38232;-69
2023/10/18 01:21:54;;;;;;;;;;;;;;;1.68;85.41;100752.84;108963;278;39382;-70
2023/10/18 01:24:34;;;;;;;;;;;;;;;1.66;85.13;100749.72;108995;278;38193;-67
2023/10/18 01:27:14;;;;;;;;;;;;;;;1.64;85.05;100749.03;108823;278;175997;-66
2023/10/18 01:29:52;;;;;;;;;;;;;;;1.66;85.27;100746.97;108985;278;40439;-71
2023/10/18 01:32:28;;;;;;;;;;;;;;;1.67;85.11;100746.11;109060;277;38670;-70
2023/10/18 01:35:02;;;;;;;;;;;;;;;1.68;85.23;100745.42;109103;277;39561;-71
2023/10/18 01:37:34;;;;;;;;;;;;;;;1.68;85.26;100744.41;109067;278;39486;-72
2023/10/18 01:40:20;;;;;;;;;;;;;;;1.68;85.12;100739.41;109111;278;38489;-69
2023/10/18 01:42:56;;;;;;;;;;;;;;;1.63;84.90;100746.27;109096;278;38507;-67
2023/10/18 01:45:39;;;;;;;;;;;;;;;1.58;84.88;100745.73;109042;277;39780;-71
2023/10/18 01:48:18;;;;;;;;;;;;;;;1.52;84.93;100747.41;109140;278;39449;-71
2023/10/18 01:50:51;;;;;;;;;;;;;;;1.48;84.98;100752.23;109126;277;38336;-67
2023/10/18 01:53:31;;;;;;;;;;;;;;;1.45;85.12;100749.11;108896;277;175525;-67
2023/10/18 01:56:03;;;;;;;;;;;;;;;1.43;84.95;100748.08;109033;277;38250;-70
2023/10/18 01:58:38;;;;;;;;;;;;;;;1.43;84.98;100744.80;109042;278;38523;-70
2023/10/18 02:01:16;;;;;;;;;;;;;;;1.45;85.30;100747.39;109046;278;40297;-67
2023/10/18 02:04:00;;;;;;;;;;;;;;;1.47;85.43;100745.33;109052;278;38667;-67
2023/10/18 02:06:37;;;;;;;;;;;;;;;1.46;85.37;100747.39;109116;278;39057;-71
2023/10/18 02:09:12;;;;;;;;;;;;;;;1.44;85.42;100748.25;108992;278;40261;-71
2023/10/18 02:11:44;;;;;;;;;;;;;;;1.42;85.50;100750.27;109056;277;38783;-70
2023/10/18 02:14:19;;;;;;;;;;;;;;;1.39;85.38;100746.33;108977;278;190077;-68
2023/10/18 02:16:58;;;;;;;;;;;;;;;1.36;85.25;100744.93;109019;278;39689;-67
2023/10/18 02:19:39;;;;;;;;;;;;;;;1.34;85.24;100742.35;109018;276;38430;-66
2023/10/18 02:22:16;;;;;;;;;;;;;;;1.33;85.23;100750.59;109142;276;38131;-67
2023/10/18 02:24:56;;;;;;;;;;;;;;;1.31;85.33;100748.52;109094;276;40447;-66
2023/10/18 02:27:32;;;;;;;;;;;;;;;1.32;85.27;100745.42;109113;276;38264;-67
2023/10/18 02:30:17;;;;;;;;;;;;;;;1.32;85.32;100742.33;109144;276;38224;-68
2023/10/18 02:32:52;;;;;;;;;;;;;;;1.31;85.25;100745.59;109091;276;41039;-67
2023/10/18 02:35:27;;;;;;;;;;;;;;;1.27;85.10;100746.77;109097;276;38385;-71
2023/10/18 02:38:08;;;;;;;;;;;;;;;1.22;84.92;100744.52;109155;276;38194;-71
2023/10/18 02:40:49;;;;;;;;;;;;;;;1.17;84.87;100740.35;108985;276;40419;-69
2023/10/18 02:43:25;;;;;;;;;;;;;;;1.10;84.92;100736.17;108961;277;38443;-70
2023/10/18 02:45:57;;;;;;;;;;;;;;;1.05;85.07;100730.14;109002;277;38812;-72
2023/10/18 02:48:34;;;;;;;;;;;;;;;1.03;85.02;100726.18;108164;277;860190;-71
2023/10/18 02:51:11;;;;;;;;;;;;;;;1.02;85.16;100722.55;108930;277;38276;-70
2023/10/18 02:53:44;;;;;;;;;;;;;;;1.05;85.37;100724.64;108957;277;38522;-70
2023/10/18 02:56:20;;;;;;;;;;;;;;;1.05;85.26;100722.59;108978;277;39740;-67
2023/10/18 02:58:57;;;;;;;;;;;;;;;1.04;85.33;100722.06;108948;277;39797;-67
2023/10/18 03:01:29;;;;;;;;;;;;;;;1.04;85.34;100717.08;109007;277;38724;-71
2023/10/18 03:04:08;;;;;;;;;;;;;;;1.00;85.44;100717.05;108945;277;39834;-68
2023/10/18 03:06:45;;;;;;;;;;;;;;;0.95;85.40;100711.87;108906;277;38781;-68
2023/10/18 03:09:38;;;;;;;;;;;;;;;0.91;85.22;100714.77;108990;277;38627;-68
2023/10/18 03:12:21;;;;;;;;;;;;;;;0.87;85.34;100713.87;108994;277;39501;-66
2023/10/18 03:14:57;;;;;;;;;;;;;;;0.86;85.42;100709.76;108981;277;39811;-71
2023/10/18 03:17:32;;;;;;;;;;;;;;;0.87;85.71;100709.59;108960;277;38680;-72
2023/10/18 03:20:16;;;;;;;;;;;;;;;0.90;86.03;100713.55;108976;277;39621;-69
2023/10/18 03:22:53;;;;;;;;;;;;;;;0.94;86.32;100709.63;108955;277;39231;-68
2023/10/18 03:25:28;;;;;;;;;;;;;;;1.00;86.69;100702.27;108940;277;38639;-72
2023/10/18 03:28:04;;;;;;;;;;;;;;;1.05;86.91;100700.42;108972;277;39543;-71
2023/10/18 03:30:44;;;;;;;;;;;;;;;1.06;86.90;100697.67;108984;277;38480;-69
2023/10/18 03:33:16;;;;;;;;;;;;;;;1.07;86.85;100692.52;108938;277;39352;-67
2023/10/18 03:36:17;;;;;;;;;;;;;;;1.07;86.75;100691.32;108924;277;40490;-70
2023/10/18 03:39:15;;;;;;;;;;;;;;;1.07;86.82;100685.48;108950;277;39037;-72
2023/10/18 03:41:52;;;;;;;;;;;;;;;1.11;87.17;100677.60;108969;277;39394;-67
2023/10/18 03:44:27;;;;;;;;;;;;;;;1.16;87.41;100677.11;108945;277;39486;-67
2023/10/18 03:47:11;;;;;;;;;;;;;;;1.21;87.62;100675.26;109016;277;38309;-69
2023/10/18 03:49:47;;;;;;;;;;;;;;;1.28;87.70;100673.73;108977;277;38151;-70
2023/10/18 03:52:21;;;;;;;;;;;;;;;1.34;87.67;100670.66;108915;277;39351;-71
2023/10/18 03:55:13;;;;;;;;;;;;;;;1.36;87.53;100667.92;109022;277;39906;-68
2023/10/18 03:57:54;;;;;;;;;;;;;;;1.39;87.48;100668.47;108936;277;38924;-67
2023/10/18 04:00:39;;;;;;;;;;;;;;;1.37;87.43;100666.55;108951;277;41080;-68
2023/10/18 04:03:15;;;;;;;;;;;;;;;1.35;87.36;100665.86;108974;277;39414;-66
2023/10/18 04:05:52;;;;;;;;;;;;;;;1.34;87.38;100661.73;108942;277;38216;-67
2023/10/18 04:08:34;;;;;;;;;;;;;;;1.33;87.41;100661.38;108933;277;39295;-67
2023/10/18 04:11:08;;;;;;;;;;;;;;;1.32;87.23;100663.95;108955;277;39954;-71
2023/10/18 04:13:41;;;;;;;;;;;;;;;1.32;87.20;100663.61;108988;277;38571;-71
2023/10/18 04:16:18;;;;;;;;;;;;;;;1.30;87.30;100662.41;108271;277;911329;-68
2023/10/18 04:18:58;;;;;;;;;;;;;;;1.31;87.36;100661.89;108922;277;38756;-66
2023/10/18 04:21:33;;;;;;;;;;;;;;;1.32;87.30;100658.96;108952;277;39617;-68
2023/10/18 04:24:08;;;;;;;;;;;;;;;1.33;87.11;100655.53;108962;277;39295;-71
2023/10/18 04:26:41;;;;;;;;;;;;;;;1.32;87.12;100656.22;108937;277;39350;-71
2023/10/18 04:29:25;;;;;;;;;;;;;;;1.33;87.27;100659.16;109006;277;38849;-71
2023/10/18 04:32:03;;;;;;;;;;;;;;;1.33;87.16;100662.07;108946;277;39309;-71
2023/10/18 04:34:36;;;;;;;;;;;;;;;1.30;87.05;100658.80;109007;277;39149;-72
2023/10/18 04:37:12;;;;;;;;;;;;;;;1.27;87.02;100657.40;108992;277;38737;-73
2023/10/18 04:39:49;;;;;;;;;;;;;;;1.23;86.91;100654.13;108996;277;39193;-69
2023/10/18 04:42:24;;;;;;;;;;;;;;;1.18;86.99;100654.44;108986;277;38759;-67
2023/10/18 04:44:58;;;;;;;;;;;;;;;1.16;87.10;100658.39;108972;277;38396;-67
2023/10/18 04:47:41;;;;;;;;;;;;;;;1.13;86.95;100658.36;108978;277;40437;-68
2023/10/18 04:50:18;;;;;;;;;;;;;;;1.13;87.18;100654.93;108861;277;175894;-71
2023/10/18 04:52:57;;;;;;;;;;;;;;;1.14;87.19;100654.77;108955;277;38144;-71
2023/10/18 04:55:32;;;;;;;;;;;;;;;1.15;87.21;100659.42;108948;277;39579;-68
2023/10/18 04:58:15;;;;;;;;;;;;;;;1.14;87.37;100657.18;108896;277;39106;-67
2023/10/18 05:00:57;;;;;;;;;;;;;;;1.17;87.60;100658.90;108938;277;38438;-70
2023/10/18 05:03:31;;;;;;;;;;;;;;;1.21;87.65;100658.75;108933;277;39463;-70
2023/10/18 05:06:04;;;;;;;;;;;;;;;1.23;87.46;100654.13;108999;277;39625;-68
2023/10/18 05:08:45;;;;;;;;;;;;;;;1.22;87.42;100655.83;108953;277;38706;-68
2023/10/18 05:11:26;;;;;;;;;;;;;;;1.20;87.35;100652.21;108963;277;39296;-71
2023/10/18 05:14:03;;;;;;;;;;;;;;;1.18;87.34;100660.10;108994;277;38148;-71
2023/10/18 05:16:39;;;;;;;;;;;;;;;1.14;87.24;100665.06;108967;277;38467;-73
2023/10/18 05:19:13;;;;;;;;;;;;;;;1.10;87.09;100666.95;108968;277;39282;-69
2023/10/18 05:21:46;;;;;;;;;;;;;;;1.05;86.98;100666.41;108946;277;38268;-67
2023/10/18 05:24:23;;;;;;;;;;;;;;;1.01;86.74;100663.12;109012;277;38571;-71
2023/10/18 05:26:57;;;;;;;;;;;;;;;0.98;86.86;100662.24;108935;277;39291;-71
2023/10/18 05:29:42;;;;;;;;;;;;;;;1.00;87.14;100664.49;109013;277;38221;-68
2023/10/18 05:32:36;;;;;;;;;;;;;;;1.02;87.45;100667.41;108945;277;39032;-70
2023/10/18 05:35:26;;;;;;;;;;;;;;;1.06;87.39;100669.67;108936;277;40387;-72
2023/10/18 05:38:18;;;;;;;;;;;;;;;1.09;87.83;100671.06;108971;277;38286;-72
2023/10/18 05:40:57;;;;;;;;;;;;;;;1.15;88.23;100672.29;108978;277;39500;-68
2023/10/18 05:43:37;;;;;;;;;;;;;;;1.21;88.31;100669.23;108927;277;39612;-67
2023/10/18 05:46:14;;;;;;;;;;;;;;;1.25;88.40;100667.70;109028;277;38139;-67
2023/10/18 05:48:47;;;;;;;;;;;;;;;1.32;88.62;100668.09;108903;277;38344;-67
2023/10/18 05:51:32;;;;;;;;;;;;;;;1.39;88.88;100663.81;108974;277;39276;-67
2023/10/18 05:54:08;;;;;;;;;;;;;;;1.50;89.04;100664.19;108920;277;39651;-68
2023/10/18 05:56:49;;;;;;;;;;;;;;;1.57;89.07;100662.17;108971;277;38090;-68
2023/10/18 05:59:31;;;;;;;;;;;;;;;1.68;89.19;100662.02;108960;277;39169;-68
2023/10/18 06:02:13;;;;;;;;;;;;;;;1.77;89.31;100660.16;108989;277;38211;-69
2023/10/18 06:04:47;;;;;;;;;;;;;;;1.86;89.46;100659.14;109047;277;38539;-68
2023/10/18 06:07:24;;;;;;;;;;;;;;;1.93;89.41;100659.50;108985;277;40725;-68
2023/10/18 06:10:07;;;;;;;;;;;;;;;1.99;89.45;100659.52;108984;277;38224;-71
2023/10/18 06:12:41;;;;;;;;;;;;;;;2.06;89.37;100657.12;108989;277;39990;-71
2023/10/18 06:15:14;;;;;;;;;;;;;;;2.16;89.50;100657.98;108975;277;39461;-71
2023/10/18 06:17:52;;;;;;;;;;;;;;;2.25;89.42;100658.00;108960;277;38058;-71
2023/10/18 06:20:27;;;;;;;;;;;;;;;2.35;89.50;100655.75;108956;277;38499;-67
2023/10/18 06:23:36;;;;;;;;;;;;;;;2.45;89.52;100652.14;108931;277;39678;-68
2023/10/18 06:29:08;;;;;;;;;;;;;;;2.69;89.65;100644.02;108909;277;39609;-71
2023/10/18 06:31:44;;;;;;;;;;;;;;;2.81;89.49;100643.49;108896;277;176656;-74
2023/10/18 06:34:17;;;;;;;;;;;;;;;2.90;89.41;100641.23;108958;277;38447;-69
2023/10/18 06:36:52;;;;;;;;;;;;;;;2.98;89.30;100635.52;108879;277;175801;-70
2023/10/18 06:39:34;;;;;;;;;;;;;;;3.05;89.12;100638.60;109007;277;39921;-70
2023/10/18 06:42:09;;;;;;;;;;;;;;;3.11;88.99;100638.41;108977;277;38598;-71
2023/10/18 06:44:43;;;;;;;;;;;;;;;3.18;89.01;100632.35;109060;277;38315;-70
2023/10/18 06:47:16;;;;;;;;;;;;;;;3.26;89.04;100629.90;109035;277;40512;-69
2023/10/18 06:49:58;;;;;;;;;;;;;;;3.36;89.11;100626.94;109073;277;38420;-68
2023/10/18 06:52:44;;;;;;;;;;;;;;;3.48;89.06;100628.44;108968;277;38265;-70
2023/10/18 06:55:17;;;;;;;;;;;;;;;3.61;89.08;100630.10;108999;277;39655;-73
2023/10/18 06:57:56;;;;;;;;;;;;;;;3.73;88.99;100630.55;108957;277;38449;-72
2023/10/18 07:00:30;;;;;;;;;;;;;;;3.85;88.81;100633.40;108946;277;39426;-72
2023/10/18 07:03:04;;;;;;;;;;;;;;;3.99;88.72;100632.27;108911;277;39271;-74
2023/10/18 07:05:39;;;;;;;;;;;;;;;4.12;88.67;100634.24;108949;277;38752;-69
2023/10/18 07:08:25;;;;;;;;;;;;;;;4.27;88.56;100634.14;108948;277;38865;-68
2023/10/18 07:10:57;;;;;;;;;;;;;;;4.49;88.37;100630.15;108937;277;39382;-68
2023/10/18 07:13:38;;;;;;;;;;;;;;;4.64;88.04;100634.84;109005;277;39245;-67
2023/10/18 07:16:15;;;;;;;;;;;;;;;4.77;87.65;100636.11;108920;277;41490;-70
2023/10/18 07:19:03;;;;;;;;;;;;;;;4.86;87.49;100632.38;108901;277;39565;-68
2023/10/18 07:21:38;;;;;;;;;;;;;;;5.00;87.31;100628.95;108948;277;38246;-70
2023/10/18 07:24:17;;;;;;;;;;;;;;;5.31;87.96;100621.14;108946;277;38260;-71
2023/10/18 07:26:49;;;;;;;;;;;;;;;5.72;88.18;100614.20;108940;277;39384;-71
2023/10/18 07:29:27;;;;;;;;;;;;;;;6.12;88.52;100608.94;109000;277;38786;-72
2023/10/18 07:32:06;;;;;;;;;;;;;;;6.58;88.01;100603.14;108984;277;39906;-72
2023/10/18 07:34:42;;;;;;;;;;;;;;;7.02;87.27;100604.39;108953;277;41382;-72
2023/10/18 07:37:24;;;;;;;;;;;;;;;7.42;85.97;100601.85;108941;277;38156;-72
2023/10/18 07:40:08;;;;;;;;;;;;;;;7.80;86.23;100601.17;109039;277;39408;-72
2023/10/18 07:42:43;;;;;;;;;;;;;;;8.25;85.18;100600.64;109016;277;39364;-72
2023/10/18 07:45:17;;;;;;;;;;;;;;;8.93;83.44;100590.88;108971;277;38147;-72
2023/10/18 07:47:54;;;;;;;;;;;;;;;9.73;80.92;100591.81;108996;277;38469;-72
2023/10/18 07:50:41;;;;;;;;;;;;;;;10.58;79.03;100591.34;108932;277;39316;-74
2023/10/18 07:53:24;;;;;;;;;;;;;;;11.36;75.79;100585.18;108946;277;38943;-73
2023/10/18 07:56:00;;;;;;;;;;;;;;;11.76;73.27;100588.20;109043;277;38771;-71
2023/10/18 07:58:47;;;;;;;;;;;;;;;11.89;71.36;100588.60;108926;277;39279;-70
2023/10/18 08:04:09;;;;;;;;;;;;;;;11.93;68.87;100584.95;108911;277;39454;-70
2023/10/18 08:06:44;;;;;;;;;;;;;;;12.00;68.40;100587.29;108858;277;175237;-71
2023/10/18 08:09:20;;;;;;;;;;;;;;;12.10;67.74;100586.01;109010;277;39782;-68
2023/10/18 08:12:05;;;;;;;;;;;;;;;12.18;67.32;100586.23;108959;277;39394;-67
2023/10/18 08:14:39;;;;;;;;;;;;;;;12.21;66.94;100592.39;108959;277;39312;-70
2023/10/18 08:22:52;;;;;;;;;;;;;;;12.00;65.08;100586.04;109019;277;39784;-67
2023/10/18 08:25:35;;;;;;;;;;;;;;;11.85;65.18;100585.11;108957;277;38235;-70
2023/10/18 08:28:13;;;;;;;;;;;;;;;11.70;64.85;100587.39;109000;277;38353;-70
2023/10/18 08:33:38;;;;;;;;;;;;;;;11.54;64.74;100581.20;108943;277;39196;-68
2023/10/18 08:36:13;;;;;;;;;;;;;;;11.64;64.60;100578.55;109000;277;39891;-72
2023/10/18 08:38:47;;;;;;;;;;;;;;;11.74;63.58;100573.95;108951;277;39948;-70
2023/10/18 08:41:21;;;;;;;;;;;;;;;11.80;63.40;100573.71;108966;277;38757;-66
2023/10/18 08:44:15;;;;;;;;;;;;;;;11.84;63.41;100571.83;108988;277;38753;-67
2023/10/18 08:46:55;;;;;;;;;;;;;;;11.80;63.54;100573.21;108974;277;40398;-75
2023/10/18 08:49:32;;;;;;;;;;;;;;;11.77;63.48;100575.95;109012;277;39590;-69
2023/10/18 08:52:08;;;;;;;;;;;;;;;11.73;63.05;100574.70;108955;277;39840;-70
2023/10/18 08:54:44;;;;;;;;;;;;;;;11.65;62.82;100570.45;109005;277;41274;-67
2023/10/18 08:57:34;;;;;;;;;;;;;;;11.61;63.00;100567.46;109015;277;39587;-66
2023/10/18 09:01:02;;;;;;;;;;;;;;;11.60;62.29;100564.20;109034;277;38673;-70
2023/10/18 09:03:11;;;;;;;;;;;;;;;11.65;61.79;100564.52;108849;277;174277;-70
2023/10/18 09:05:43;;;;;;;;;;;;;;;11.78;61.82;100565.75;108999;277;39316;-70
2023/10/18 09:08:26;;;;;;;;;;;;;;;11.91;61.09;100564.55;108970;277;38753;-69
2023/10/18 09:10:59;;;;;;;;;;;;;;;12.06;60.89;100561.48;108989;277;40469;-69
2023/10/18 09:13:37;;;;;;;;;;;;;;;12.36;60.51;100560.81;108971;277;39505;-70
2023/10/18 09:16:12;;;;;;;;;;;;;;;12.86;60.20;100558.09;109028;277;39397;-68
2023/10/18 09:18:48;;;;;;;;;;;;;;;13.52;59.67;100558.05;108938;277;40903;-69
2023/10/18 09:21:36;;;;;;;;;;;;;;;14.32;58.69;100553.82;108954;277;38399;-66
2023/10/18 09:24:10;;;;;;;;;;;;;;;15.08;57.35;100551.27;108960;277;38154;-71
2023/10/18 09:26:42;;;;;;;;;;;;;;;15.81;55.94;100555.36;108956;277;40568;-71
2023/10/18 09:29:15;;;;;;;;;;;;;;;16.49;54.97;100553.30;108961;277;38453;-70
2023/10/18 09:31:52;;;;;;;;;;;;;;;17.10;52.56;100558.63;108959;277;38508;-71
2023/10/18 09:34:33;;;;;;;;;;;;;;;17.54;50.70;100559.53;108964;277;40250;-68
2023/10/18 09:37:11;;;;;;;;;;;;;;;18.01;49.68;100560.75;108966;277;39467;-67
2023/10/18 09:39:56;;;;;;;;;;;;;;;18.38;48.56;100555.14;108300;277;889904;-72
2023/10/18 09:42:31;;;;;;;;;;;;;;;18.69;47.01;100553.52;108994;277;39442;-71
2023/10/18 09:45:08;;;;;;;;;;;;;;;18.98;46.98;100543.71;109019;277;38587;-68
2023/10/18 09:47:44;;;;;;;;;;;;;;;19.47;45.76;100545.62;108360;277;889387;-67
2023/10/18 09:50:31;;;;;;;;;;;;;;;19.70;44.13;100546.36;108968;277;39337;-71
2023/10/18 09:53:04;;;;;;;;;;;;;;;19.45;43.69;100545.39;108962;277;39379;-71
2023/10/18 09:55:41;;;;;;;;;;;;;;;19.13;43.77;100545.14;109012;277;38405;-71
2023/10/18 09:58:18;;;;;;;;;;;;;;;18.68;43.73;100541.77;108934;277;39428;-71
2023/10/18 10:00:57;;;;;;;;;;;;;;;18.16;44.46;100538.57;109004;277;38243;-67
2023/10/18 10:03:32;;;;;;;;;;;;;;;17.67;44.21;100537.88;108877;277;175005;-66
2023/10/18 10:06:07;;;;;;;;;;;;;;;17.18;45.19;100534.31;108975;277;39588;-68
2023/10/18 10:08:48;;;;;;;;;;;;;;;16.65;45.33;100534.93;108959;277;38274;-68
2023/10/18 10:11:34;;;;;;;;;;;;;;;16.17;45.96;100536.91;108958;277;39801;-70
2023/10/18 10:14:16;;;;;;;5.50;3.70;;;;;;;15.73;46.48;100535.07;108959;277;41101;-68
2023/10/18 10:17:00;;;;;;;4.50;3.50;;;;;;;15.40;46.93;100529.12;108926;277;39164;-68
2023/10/18 10:19:40;;;;;;;5.20;3.70;;;;;;;15.09;47.46;100526.64;108983;277;38235;-68
2023/10/18 10:22:24;;;;;;;6.50;3.90;;;;;;;14.87;48.08;100524.99;108999;277;38176;-67
2023/10/18 10:25:13;;;;;;;4.80;3.70;;;;;;;14.65;48.14;100521.21;108989;277;38136;-67
2023/10/18 10:27:59;;;;;;;4.50;3.70;;;;;;;14.44;47.98;100516.71;108989;277;38339;-69
2023/10/18 10:30:45;;;;;;;5.50;3.70;;;;;;;14.23;48.21;100512.52;108991;277;38189;-67
2023/10/18 10:33:23;;;;;;;5.90;4.00;;;;;;;14.04;48.51;100514.52;108943;277;38464;-67
2023/10/18 10:36:07;;;;;;;4.40;3.50;;;;;;;13.86;48.73;100514.69;108956;277;38198;-67
2023/10/18 10:38:43;;;;;;;4.80;3.50;;;;;;;13.70;49.32;100517.96;108991;277;39340;-68
2023/10/18 10:41:30;;;;;;;4.40;3.20;;;;;;;13.58;49.65;100517.32;108943;277;38677;-67
2023/10/18 10:44:22;;;;;;;4.10;3.40;;;;;;;13.47;49.97;100512.21;108949;277;38207;-72
2023/10/18 10:47:42;;;;;;;8.60;4.00;;;;;;;13.35;49.78;100509.80;108936;277;38744;-72
2023/10/18 10:50:50;;;;;;;7.60;3.80;;;;;;;13.24;50.48;100511.21;108343;277;38729;-68
2023/10/18 10:53:43;;;;;;;6.00;3.70;;;;;;;13.14;50.66;100507.93;108931;277;39297;-69
2023/10/18 10:56:48;;;;;;;4.20;3.40;;;;;;;13.07;50.57;100506.52;108891;277;175268;-69
2023/10/18 10:59:30;;;;;;;5.50;3.30;;;;;;;12.97;50.77;100504.71;108949;277;38197;-67
2023/10/18 11:02:24;;;;;;;5.90;3.10;;;;;;;12.96;51.09;100500.91;108950;277;39166;-66
2023/10/18 11:05:15;;;;;;;6.10;3.40;;;;;;;12.95;51.01;100496.57;108315;277;901028;-68
2023/10/18 11:07:54;;;;;;;6.00;3.20;;;;;;;13.02;51.35;100490.84;108951;277;38307;-69
2023/10/18 11:10:39;;;;;;;4.80;3.10;;;;;;;13.14;51.51;100483.09;108995;277;39470;-66
2023/10/18 11:13:22;;;;;;;5.30;2.90;;;;;;;13.25;51.03;100479.44;108937;277;38838;-66
2023/10/18 11:16:00;;;;;;;4.50;2.90;;;;;;;13.31;50.67;100474.27;109037;277;39441;-72
2023/10/18 11:18:40;;;;;;;4.10;2.70;;;;;;;13.34;50.50;100475.33;108994;277;40004;-72
2023/10/18 11:21:21;;;;;;;3.50;3.00;;;;;;;13.33;50.29;100474.34;108981;277;39411;-69
2023/10/18 11:24:10;;;;;;;3.80;2.50;;;;;;;13.24;50.25;100472.83;108947;277;38470;-70
2023/10/18 11:26:46;;;;;;;3.40;2.40;;;;;;;13.12;50.27;100475.13;108902;277;39585;-69
2023/10/18 11:29:38;;;;;;;3.10;2.40;;;;;;;12.98;50.18;100477.02;108952;277;38152;-71
2023/10/18 11:32:18;;;;;;;;;;;;;;;12.90;50.48;100472.11;108930;277;38758;-70
2023/10/18 11:35:08;;;;;;;5.40;2.90;;;;;;;12.85;50.77;100470.58;109024;277;39615;-71
2023/10/18 11:37:47;;;;;;;4.00;2.40;;;;;;;12.92;51.07;100468.55;108933;277;40037;-71
2023/10/18 11:40:29;;;;;;;4.10;2.70;;;;;;;13.01;51.34;100467.23;108937;277;38417;-66
2023/10/18 11:43:08;;;;;;;6.60;3.50;;;;;;;13.09;50.71;100461.77;108950;277;38349;-67
2023/10/18 11:45:48;;;;;;;4.60;3.00;;;;;;;13.12;50.84;100467.96;108949;277;38255;-68
2023/10/18 11:48:34;;;;;;;3.60;2.80;;;;;;;13.14;50.83;100467.65;108934;277;38473;-67
2023/10/18 11:51:08;;;;;;;4.70;3.30;;;;;;;13.16;50.31;100467.23;109007;277;38269;-65
2023/10/18 11:53:54;;;;;;;5.90;3.10;;;;;;;13.16;50.26;100463.73;109003;277;39800;-66
2023/10/18 11:56:38;;;;;;;5.00;2.70;;;;;;;13.16;50.40;100464.80;109002;277;38137;-68
2023/10/18 11:59:13;;;;;;;4.80;2.90;;;;;;;13.13;50.44;100463.70;109030;277;38147;-72
2023/10/18 12:01:47;;;;;;;4.50;2.30;;;;;;;13.07;50.59;100456.95;109012;277;38323;-72
2023/10/18 12:04:37;;;;;;;5.60;2.80;;;;;;;13.03;50.64;100453.13;109020;277;39396;-68
2023/10/18 12:07:14;;;;;;;5.10;2.60;;;;;;;12.98;50.75;100453.89;108967;277;38791;-68
2023/10/18 12:09:52;;;;;;;5.30;3.00;;;;;;;12.94;50.63;100445.51;108992;277;38112;-68
2023/10/18 12:12:32;;;;;;;4.20;2.60;;;;;;;12.88;50.68;100447.48;108960;277;38482;-69
2023/10/18 12:15:09;;;;;;;5.60;2.70;;;;;;;12.85;50.87;100442.08;108918;277;38995;-67
2023/10/18 12:17:52;;;;;;;4.70;3.10;;;;;;;12.79;50.64;100439.54;108898;277;38517;-67
2023/10/18 12:20:43;;;;;;;5.40;3.30;;;;;;;12.74;50.82;100435.77;108988;277;38259;-67
2023/10/18 12:23:22;;;;;;;5.00;3.10;;;;;;;12.70;50.79;100437.35;108927;277;38449;-68
2023/10/18 12:26:05;;;;;;;5.00;3.10;;;;;;;12.67;50.92;100436.09;108921;277;38424;-71
2023/10/18 12:28:41;;;;;;;6.90;3.10;;;;;;;12.59;50.51;100429.58;108933;277;38813;-73
2023/10/18 12:31:16;;;;;;;4.40;2.80;;;;;;;12.53;50.91;100430.58;108975;277;38207;-75
2023/10/18 12:34:01;;;;;;;7.40;3.70;;;;;;;12.48;51.03;100424.15;109003;277;38563;-75
2023/10/18 12:36:39;;;;;;;4.10;2.90;;;;;;;12.42;51.09;100417.93;108994;277;39902;-69
2023/10/18 12:39:25;;;;;;;5.50;3.20;;;;;;;12.36;51.27;100410.66;108987;277;38809;-71
2023/10/18 12:42:05;;;;;;;5.00;3.30;;;;;;;12.30;51.15;100414.27;108903;277;175268;-71
2023/10/18 12:44:40;;;;;;;5.70;3.30;;;;;;;12.24;51.58;100415.07;109036;277;40017;-69
2023/10/18 12:47:19;;;;;;;5.00;3.60;;;;;;;12.16;51.46;100408.75;108967;277;39328;-67
2023/10/18 12:50:03;;;;;;;3.80;3.00;;;;;;;12.10;51.87;100405.36;109097;277;38570;-66
2023/10/18 12:52:44;;;;;;;5.00;3.70;;;;;;;12.04;52.01;100408.75;109030;277;39068;-69
2023/10/18 12:58:28;;;;;;;6.00;3.40;;;;;;;11.91;52.47;100398.65;108964;277;39524;-73
2023/10/18 13:01:10;;;;;;;7.80;4.10;;;;;;;11.86;52.78;100400.80;108980;277;39631;-66
2023/10/18 13:03:56;;;;;;;5.40;3.60;;;;;;;11.84;52.77;100398.27;108987;277;38442;-67
2023/10/18 13:06:35;;;;;;;6.10;3.90;;;;;;;11.79;52.81;100398.44;109013;277;38526;-67
2023/10/18 13:09:18;;;;;;;6.20;3.80;;;;;;;11.75;52.94;100397.23;108946;277;39307;-68
2023/10/18 13:12:07;;;;;;;5.40;3.70;;;;;;;11.70;52.91;100396.92;108989;277;38189;-68
2023/10/18 13:14:42;;;;;;;5.10;3.60;;;;;;;11.65;53.01;100395.90;109023;277;38327;-71
2023/10/18 13:17:22;;;;;;;5.30;3.60;;;;;;;11.61;53.36;100396.07;108363;277;899398;-68
2023/10/18 13:20:02;;;;;;;5.30;3.60;;;;;;;11.59;53.51;100396.67;108955;277;38499;-69
2023/10/18 13:22:41;;;;;;;5.30;3.40;;;;;;;11.58;53.65;100392.36;108881;277;175299;-67
2023/10/18 13:25:36;;;;;;;5.60;3.80;;;;;;;11.55;53.44;100390.36;108973;277;38777;-72
2023/10/18 13:28:33;;;;;;;5.80;3.60;;;;;;;11.53;53.71;100385.40;109049;277;38740;-71
2023/10/18 13:31:18;;;;;;;5.00;3.20;;;;;;;11.52;53.81;100386.52;109008;277;38642;-67
2023/10/18 13:34:06;;;;;;;7.00;3.90;;;;;;;11.50;53.94;100383.24;108304;277;900033;-68
2023/10/18 13:36:41;;;;;;;5.00;3.00;;;;;;;11.50;53.94;100387.11;108969;277;38608;-73
2023/10/18 13:39:17;;;;;;;4.90;3.00;;;;;;;11.51;54.14;100382.52;108942;277;38730;-68
2023/10/18 13:41:58;;;;;;;4.80;3.00;;;;;;;11.52;54.06;100375.81;108963;277;39456;-67